Koppie Airport

Jump to: basic info | weather | runways | comments

Related pages: nearby airports | nearby navaids | notams | map

Basic information (top)

Codes: 7IS5
Location: lon 42.121399, lat -88.378098, elev 890 ft / 271 m msl
Status: small_airport

Weather (top)

Current conditions for Dupage Airport 14nm (26km) SSE (rec'd 2014/09/17 06:52Z):

KDPA 170652Z 00000KT 10SM CLR 07/06 A3007 RMK AO2 SLP181 T00720056

Airport forecast for Dupage Airport 14nm (26km) SSE (rec'd 2014/09/17 06:21Z):

TAF KDPA 170520Z 1706/1806 00000KT P6SM SKC 
     FM171400 24005KT P6SM FEW040 SCT080 
     FM180200 VRB02KT P6SM SKC

Runways (top)

N/S: 2,300 x 100 ft (701 x 30 m) — grass — not lighted

Latest comments (top)

No comments yet for Koppie Airport

More... (top)

See also NOTAMs and nearby airports and navaids, or visit the Koppie Airport page at the main OurAirports website..